sensor_id;sensor_type;location;lat;lon;timestamp;pressure;altitude;pressure_sealevel;temperature;humidity
17362;BME280;8798;51.938;4.348;2023-08-08T00:00:23;101598.00;;;18.76;74.01
17362;BME280;8798;51.938;4.348;2023-08-08T00:02:51;101596.28;;;18.75;74.38
17362;BME280;8798;51.938;4.348;2023-08-08T00:05:19;101583.53;;;18.75;74.33
17362;BME280;8798;51.938;4.348;2023-08-08T00:07:49;101605.78;;;18.79;74.00
17362;BME280;8798;51.938;4.348;2023-08-08T00:10:17;101610.22;;;18.80;74.33
17362;BME280;8798;51.938;4.348;2023-08-08T00:12:45;101609.00;;;18.82;74.43
17362;BME280;8798;51.938;4.348;2023-08-08T00:15:13;101625.13;;;18.84;74.49
17362;BME280;8798;51.938;4.348;2023-08-08T00:17:41;101625.78;;;18.86;74.37
17362;BME280;8798;51.938;4.348;2023-08-08T00:20:10;101631.91;;;18.88;74.42
17362;BME280;8798;51.938;4.348;2023-08-08T00:22:38;101630.84;;;18.89;74.41
17362;BME280;8798;51.938;4.348;2023-08-08T00:25:08;101651.25;;;18.93;74.55
17362;BME280;8798;51.938;4.348;2023-08-08T00:27:36;101664.31;;;18.98;74.47
17362;BME280;8798;51.938;4.348;2023-08-08T00:30:09;101677.53;;;19.01;74.20
17362;BME280;8798;51.938;4.348;2023-08-08T00:32:38;101671.06;;;19.02;74.40
17362;BME280;8798;51.938;4.348;2023-08-08T00:35:07;101668.34;;;19.02;74.67
17362;BME280;8798;51.938;4.348;2023-08-08T00:37:35;101653.22;;;18.99;74.58
17362;BME280;8798;51.938;4.348;2023-08-08T00:40:04;101650.50;;;18.99;74.23
17362;BME280;8798;51.938;4.348;2023-08-08T00:42:34;101645.06;;;18.99;74.30
17362;BME280;8798;51.938;4.348;2023-08-08T00:45:02;101640.47;;;19.00;74.31
17362;BME280;8798;51.938;4.348;2023-08-08T00:47:31;101632.47;;;18.98;73.79
17362;BME280;8798;51.938;4.348;2023-08-08T00:50:00;101619.22;;;18.95;74.05
17362;BME280;8798;51.938;4.348;2023-08-08T00:52:29;101603.72;;;18.96;73.89
17362;BME280;8798;51.938;4.348;2023-08-08T00:54:58;101605.63;;;18.95;74.17
17362;BME280;8798;51.938;4.348;2023-08-08T04:03:08;101151.94;;;17.50;68.13
17362;BME280;8798;51.938;4.348;2023-08-08T04:05:50;101159.25;;;17.50;68.22
17362;BME280;8798;51.938;4.348;2023-08-08T04:08:18;101162.81;;;17.50;68.51
17362;BME280;8798;51.938;4.348;2023-08-08T04:10:49;101161.13;;;17.49;68.50
17362;BME280;8798;51.938;4.348;2023-08-08T04:13:23;101159.47;;;17.48;68.30
17362;BME280;8798;51.938;4.348;2023-08-08T04:15:51;101151.66;;;17.45;68.21
17362;BME280;8798;51.938;4.348;2023-08-08T04:18:20;101141.00;;;17.44;68.10
17362;BME280;8798;51.938;4.348;2023-08-08T04:20:55;101150.16;;;17.42;67.96
17362;BME280;8798;51.938;4.348;2023-08-08T04:23:23;101148.50;;;17.41;67.89
17362;BME280;8798;51.938;4.348;2023-08-08T04:25:52;101143.25;;;17.40;67.66
17362;BME280;8798;51.938;4.348;2023-08-08T04:28:27;101134.66;;;17.36;67.80
17362;BME280;8798;51.938;4.348;2023-08-08T04:30:55;101128.72;;;17.33;67.46
17362;BME280;8798;51.938;4.348;2023-08-08T04:33:24;101131.44;;;17.33;67.78
17362;BME280;8798;51.938;4.348;2023-08-08T04:35:59;101133.31;;;17.32;67.68
17362;BME280;8798;51.938;4.348;2023-08-08T04:38:27;101141.28;;;17.34;67.85
17362;BME280;8798;51.938;4.348;2023-08-08T04:40:55;101154.50;;;17.37;67.66
17362;BME280;8798;51.938;4.348;2023-08-08T04:43:29;101178.56;;;17.40;67.76
17362;BME280;8798;51.938;4.348;2023-08-08T04:45:57;101188.19;;;17.42;67.36
17362;BME280;8798;51.938;4.348;2023-08-08T04:48:26;101189.03;;;17.43;67.45
17362;BME280;8798;51.938;4.348;2023-08-08T04:51:01;101199.06;;;17.42;67.42
17362;BME280;8798;51.938;4.348;2023-08-08T04:53:29;101202.44;;;17.45;67.32
17362;BME280;8798;51.938;4.348;2023-08-08T04:55:57;101190.91;;;17.42;67.55
17362;BME280;8798;51.938;4.348;2023-08-08T04:58:32;101200.94;;;17.42;67.65
17362;BME280;8798;51.938;4.348;2023-08-08T05:01:00;101197.56;;;17.40;67.13
17362;BME280;8798;51.938;4.348;2023-08-08T05:03:29;101207.41;;;17.41;67.50
17362;BME280;8798;51.938;4.348;2023-08-08T05:06:11;101218.91;;;17.43;67.24
17362;BME280;8798;51.938;4.348;2023-08-08T05:08:39;101229.41;;;17.46;67.11
17362;BME280;8798;51.938;4.348;2023-08-08T05:11:13;101242.63;;;17.49;67.17
17362;BME280;8798;51.938;4.348;2023-08-08T05:13:41;101260.41;;;17.52;67.21
17362;BME280;8798;51.938;4.348;2023-08-08T05:16:09;101275.31;;;17.56;67.09
17362;BME280;8798;51.938;4.348;2023-08-08T05:18:45;101270.06;;;17.54;67.14
17362;BME280;8798;51.938;4.348;2023-08-08T05:21:13;101276.53;;;17.53;67.39
17362;BME280;8798;51.938;4.348;2023-08-08T05:23:41;101279.06;;;17.55;67.19
17362;BME280;8798;51.938;4.348;2023-08-08T05:26:16;101286.38;;;17.54;67.36
17362;BME280;8798;51.938;4.348;2023-08-08T05:28:44;101281.97;;;17.53;67.40
17362;BME280;8798;51.938;4.348;2023-08-08T05:31:12;101284.69;;;17.53;67.24
17362;BME280;8798;51.938;4.348;2023-08-08T05:33:49;101284.69;;;17.53;66.98
17362;BME280;8798;51.938;4.348;2023-08-08T05:36:17;101283.81;;;17.53;66.86
17362;BME280;8798;51.938;4.348;2023-08-08T05:38:45;101284.88;;;17.52;67.08
17362;BME280;8798;51.938;4.348;2023-08-08T05:41:20;101267.25;;;17.48;66.66
17362;BME280;8798;51.938;4.348;2023-08-08T05:43:50;101258.66;;;17.44;67.38
17362;BME280;8798;51.938;4.348;2023-08-08T05:46:18;101246.28;;;17.41;67.16
17362;BME280;8798;51.938;4.348;2023-08-08T05:48:54;101255.25;;;17.42;66.80
17362;BME280;8798;51.938;4.348;2023-08-08T05:51:22;101252.72;;;17.40;67.03
17362;BME280;8798;51.938;4.348;2023-08-08T05:53:50;101250.88;;;17.41;66.90
17362;BME280;8798;51.938;4.348;2023-08-08T05:56:27;101266.13;;;17.42;66.60
17362;BME280;8798;51.938;4.348;2023-08-08T05:58:55;101277.44;;;17.46;66.73
17362;BME280;8798;51.938;4.348;2023-08-08T06:01:23;101289.84;;;17.48;66.81
17362;BME280;8798;51.938;4.348;2023-08-08T06:03:59;101283.09;;;17.44;66.64
17362;BME280;8798;51.938;4.348;2023-08-08T06:06:41;101285.59;;;17.46;66.30
17362;BME280;8798;51.938;4.348;2023-08-08T06:09:16;101296.28;;;17.47;66.65
17362;BME280;8798;51.938;4.348;2023-08-08T06:11:44;101311.19;;;17.51;66.59
17362;BME280;8798;51.938;4.348;2023-08-08T06:14:12;101330.50;;;17.56;66.39
17362;BME280;8798;51.938;4.348;2023-08-08T06:16:47;101372.88;;;17.66;66.71
17362;BME280;8798;51.938;4.348;2023-08-08T06:19:16;101403.69;;;17.73;66.37
17362;BME280;8798;51.938;4.348;2023-08-08T06:21:45;101446.75;;;17.84;66.30
17362;BME280;8798;51.938;4.348;2023-08-08T06:24:20;101489.16;;;17.93;66.36
17362;BME280;8798;51.938;4.348;2023-08-08T06:26:48;101526.97;;;18.03;66.31
17362;BME280;8798;51.938;4.348;2023-08-08T06:29:16;101544.59;;;18.07;66.25
17362;BME280;8798;51.938;4.348;2023-08-08T06:31:51;101547.97;;;18.09;66.08
17362;BME280;8798;51.938;4.348;2023-08-08T06:34:20;101576.97;;;18.17;65.92
17362;BME280;8798;51.938;4.348;2023-08-08T06:36:48;101604.28;;;18.23;65.64
17362;BME280;8798;51.938;4.348;2023-08-08T06:39:23;101611.22;;;18.26;65.78
17362;BME280;8798;51.938;4.348;2023-08-08T06:41:51;101615.63;;;18.27;65.67
17362;BME280;8798;51.938;4.348;2023-08-08T06:44:19;101625.13;;;18.31;65.61
17362;BME280;8798;51.938;4.348;2023-08-08T06:46:54;101622.22;;;18.33;65.01
17362;BME280;8798;51.938;4.348;2023-08-08T06:49:23;101631.22;;;18.33;65.41
17362;BME280;8798;51.938;4.348;2023-08-08T06:51:51;101634.63;;;18.35;65.51
17362;BME280;8798;51.938;4.348;2023-08-08T06:54:26;101660.06;;;18.42;65.09
17362;BME280;8798;51.938;4.348;2023-08-08T06:56:54;101689.06;;;18.50;65.28
17362;BME280;8798;51.938;4.348;2023-08-08T06:59:26;101718.09;;;18.58;64.98
17362;BME280;8798;51.938;4.348;2023-08-08T07:02:01;101735.56;;;18.63;65.12
17362;BME280;8798;51.938;4.348;2023-08-08T07:04:44;101746.94;;;18.67;65.11
17362;BME280;8798;51.938;4.348;2023-08-08T07:07:19;101758.28;;;18.70;64.73
17362;BME280;8798;51.938;4.348;2023-08-08T07:09:48;101758.97;;;18.73;64.83
17362;BME280;8798;51.938;4.348;2023-08-08T07:12:16;101781.75;;;18.80;64.66
17362;BME280;8798;51.938;4.348;2023-08-08T07:14:51;101786.97;;;18.81;64.95
17362;BME280;8798;51.938;4.348;2023-08-08T07:17:19;101768.97;;;18.80;64.45
17362;BME280;8798;51.938;4.348;2023-08-08T07:19:48;101772.34;;;18.82;65.01
17362;BME280;8798;51.938;4.348;2023-08-08T07:22:24;101798.66;;;18.90;64.38
17362;BME280;8798;51.938;4.348;2023-08-08T07:24:52;101810.69;;;18.96;64.58
17362;BME280;8798;51.938;4.348;2023-08-08T07:27:20;101843.31;;;19.04;64.59
17362;BME280;8798;51.938;4.348;2023-08-08T07:29:55;101871.50;;;19.11;64.22
17362;BME280;8798;51.938;4.348;2023-08-08T07:32:23;101894.09;;;19.20;64.23
17362;BME280;8798;51.938;4.348;2023-08-08T07:34:52;101908.19;;;19.23;64.31
17362;BME280;8798;51.938;4.348;2023-08-08T07:37:26;101921.09;;;19.29;64.49
17362;BME280;8798;51.938;4.348;2023-08-08T07:39:54;101892.72;;;19.24;64.15
17362;BME280;8798;51.938;4.348;2023-08-08T07:42:23;101885.16;;;19.26;64.03
17362;BME280;8798;51.938;4.348;2023-08-08T07:44:57;101862.91;;;19.22;63.71
17362;BME280;8798;51.938;4.348;2023-08-08T07:47:25;101871.53;;;19.26;64.07
17362;BME280;8798;51.938;4.348;2023-08-08T07:49:55;101882.75;;;19.31;63.52
17362;BME280;8798;51.938;4.348;2023-08-08T07:52:29;101931.19;;;19.44;63.67
17362;BME280;8798;51.938;4.348;2023-08-08T07:54:57;101954.81;;;19.51;63.53
17362;BME280;8798;51.938;4.348;2023-08-08T07:57:27;102032.19;;;19.73;63.34
17362;BME280;8798;51.938;4.348;2023-08-08T08:00:02;102194.84;;;20.12;63.41
17362;BME280;8798;51.938;4.348;2023-08-08T08:02:34;102396.19;;;20.65;63.29
17362;BME280;8798;51.938;4.348;2023-08-08T08:05:24;102598.13;;;21.14;63.06
17362;BME280;8798;51.938;4.348;2023-08-08T08:07:52;102760.66;;;21.59;63.39
17362;BME280;8798;51.938;4.348;2023-08-08T08:10:27;102780.44;;;21.69;63.00
17362;BME280;8798;51.938;4.348;2023-08-08T08:12:55;102778.72;;;21.76;62.08
17362;BME280;8798;51.938;4.348;2023-08-08T08:15:25;102816.25;;;21.90;62.54
17362;BME280;8798;51.938;4.348;2023-08-08T08:18:00;102869.72;;;22.09;61.73
17362;BME280;8798;51.938;4.348;2023-08-08T08:20:29;102892.13;;;22.21;61.93
17362;BME280;8798;51.938;4.348;2023-08-08T08:22:57;102841.63;;;22.16;61.46
17362;BME280;8798;51.938;4.348;2023-08-08T08:25:32;102760.75;;;22.05;61.12
17362;BME280;8798;51.938;4.348;2023-08-08T08:28:00;102738.00;;;22.04;60.81
17362;BME280;8798;51.938;4.348;2023-08-08T08:30:28;102840.34;;;22.35;60.68
17362;BME280;8798;51.938;4.348;2023-08-08T08:33:03;102946.13;;;22.67;60.38
17362;BME280;8798;51.938;4.348;2023-08-08T08:35:35;103118.13;;;23.12;59.74
17362;BME280;8798;51.938;4.348;2023-08-08T08:38:10;103299.81;;;23.62;59.75
17362;BME280;8798;51.938;4.348;2023-08-08T08:40:41;103363.91;;;23.86;59.69
17362;BME280;8798;51.938;4.348;2023-08-08T08:43:10;103386.19;;;23.99;58.95
17362;BME280;8798;51.938;4.348;2023-08-08T08:45:50;103459.03;;;24.26;58.52
17362;BME280;8798;51.938;4.348;2023-08-08T08:48:20;103465.16;;;24.36;58.67
17362;BME280;8798;51.938;4.348;2023-08-08T08:50:57;103467.72;;;24.46;57.93
17362;BME280;8798;51.938;4.348;2023-08-08T08:53:26;103538.72;;;24.74;57.57
17362;BME280;8798;51.938;4.348;2023-08-08T08:55:54;103622.81;;;24.99;57.57
17362;BME280;8798;51.938;4.348;2023-08-08T08:58:30;103489.34;;;24.80;57.21
17362;BME280;8798;51.938;4.348;2023-08-08T09:00:58;103105.84;;;24.00;56.96
17362;BME280;8798;51.938;4.348;2023-08-08T09:03:27;102843.38;;;23.47;57.05
17362;BME280;8798;51.938;4.348;2023-08-08T09:06:04;102730.41;;;23.28;56.45
17362;BME280;8798;51.938;4.348;2023-08-08T09:08:39;102691.72;;;23.23;55.96
17362;BME280;8798;51.938;4.348;2023-08-08T09:11:13;102468.19;;;22.76;56.53
17362;BME280;8798;51.938;4.348;2023-08-08T09:13:42;102367.25;;;22.58;56.33
17362;BME280;8798;51.938;4.348;2023-08-08T09:16:10;102459.38;;;22.81;56.25
17362;BME280;8798;51.938;4.348;2023-08-08T09:18:46;102572.41;;;23.12;56.21
17362;BME280;8798;51.938;4.348;2023-08-08T09:21:15;102664.44;;;23.36;55.80
17362;BME280;8798;51.938;4.348;2023-08-08T09:23:43;102615.88;;;23.30;55.53
17362;BME280;8798;51.938;4.348;2023-08-08T09:26:17;102748.44;;;23.67;55.38
17362;BME280;8798;51.938;4.348;2023-08-08T09:28:45;102822.25;;;23.92;55.25
17362;BME280;8798;51.938;4.348;2023-08-08T09:31:13;102883.94;;;24.11;54.95
17362;BME280;8798;51.938;4.348;2023-08-08T09:33:47;102772.00;;;23.91;54.88
17362;BME280;8798;51.938;4.348;2023-08-08T09:36:19;102781.13;;;23.98;54.67
17362;BME280;8798;51.938;4.348;2023-08-08T09:38:47;102803.66;;;24.09;54.71
17362;BME280;8798;51.938;4.348;2023-08-08T09:41:22;102712.44;;;23.92;54.82
17362;BME280;8798;51.938;4.348;2023-08-08T09:43:52;102700.22;;;23.94;54.47
17362;BME280;8798;51.938;4.348;2023-08-08T09:46:22;102675.50;;;23.94;54.42
17362;BME280;8798;51.938;4.348;2023-08-08T09:48:57;102600.38;;;23.80;54.26
17362;BME280;8798;51.938;4.348;2023-08-08T09:51:27;102603.59;;;23.84;53.63
17362;BME280;8798;51.938;4.348;2023-08-08T09:53:56;102552.69;;;23.81;54.02
17362;BME280;8798;51.938;4.348;2023-08-08T09:56:30;102645.63;;;24.06;53.90
17362;BME280;8798;51.938;4.348;2023-08-08T09:59:00;102784.59;;;24.43;53.68
17362;BME280;8798;51.938;4.348;2023-08-08T10:01:28;102815.38;;;24.54;53.65
17362;BME280;8798;51.938;4.348;2023-08-08T10:04:12;102776.91;;;24.54;53.34
17362;BME280;8798;51.938;4.348;2023-08-08T10:06:55;102793.06;;;24.63;53.31
17362;BME280;8798;51.938;4.348;2023-08-08T10:09:30;102710.69;;;24.49;53.38
17362;BME280;8798;51.938;4.348;2023-08-08T10:11:58;102649.47;;;24.40;53.02
17362;BME280;8798;51.938;4.348;2023-08-08T10:14:29;102597.44;;;24.32;53.07
17362;BME280;8798;51.938;4.348;2023-08-08T10:17:04;102627.97;;;24.43;52.75
17362;BME280;8798;51.938;4.348;2023-08-08T10:19:33;102579.28;;;24.37;52.71
17362;BME280;8798;51.938;4.348;2023-08-08T10:22:04;102624.00;;;24.53;52.67
17362;BME280;8798;51.938;4.348;2023-08-08T10:24:40;102452.59;;;24.19;52.70
17362;BME280;8798;51.938;4.348;2023-08-08T10:27:07;102337.78;;;23.94;52.27
17362;BME280;8798;51.938;4.348;2023-08-08T10:29:38;102396.78;;;24.12;52.61
17362;BME280;8798;51.938;4.348;2023-08-08T10:32:24;102464.72;;;24.31;52.60
17362;BME280;8798;51.938;4.348;2023-08-08T10:34:55;102536.06;;;24.53;52.06
17362;BME280;8798;51.938;4.348;2023-08-08T10:37:31;102567.84;;;24.62;52.29
17362;BME280;8798;51.938;4.348;2023-08-08T10:40:00;102545.84;;;24.62;52.18
17362;BME280;8798;51.938;4.348;2023-08-08T10:42:43;102564.53;;;24.73;52.15
17362;BME280;8798;51.938;4.348;2023-08-08T10:45:14;102568.56;;;24.77;52.05
17362;BME280;8798;51.938;4.348;2023-08-08T10:47:49;102542.31;;;24.75;51.81
17362;BME280;8798;51.938;4.348;2023-08-08T10:50:22;102427.84;;;24.54;51.84
17362;BME280;8798;51.938;4.348;2023-08-08T10:52:59;102490.69;;;24.70;51.88
17362;BME280;8798;51.938;4.348;2023-08-08T10:55:31;102478.44;;;24.73;51.74
17362;BME280;8798;51.938;4.348;2023-08-08T10:58:07;102412.88;;;24.63;51.69
17362;BME280;8798;51.938;4.348;2023-08-08T11:00:36;102358.31;;;24.53;51.24
17362;BME280;8798;51.938;4.348;2023-08-08T11:03:20;102447.56;;;24.77;51.23
17362;BME280;8798;51.938;4.348;2023-08-08T11:06:01;102515.34;;;24.98;50.99
17362;BME280;8798;51.938;4.348;2023-08-08T11:08:39;102367.22;;;24.68;51.03
17362;BME280;8798;51.938;4.348;2023-08-08T11:11:07;102374.84;;;24.73;51.17
17362;BME280;8798;51.938;4.348;2023-08-08T11:13:35;102472.00;;;25.00;50.72
17362;BME280;8798;51.938;4.348;2023-08-08T11:16:10;102492.72;;;25.09;50.81
17362;BME280;8798;51.938;4.348;2023-08-08T11:18:38;102555.47;;;25.27;50.82
17362;BME280;8798;51.938;4.348;2023-08-08T11:21:10;102679.19;;;25.62;51.05
17362;BME280;8798;51.938;4.348;2023-08-08T11:23:47;102683.03;;;25.68;50.41
17362;BME280;8798;51.938;4.348;2023-08-08T11:26:17;102548.72;;;25.43;50.34
17362;BME280;8798;51.938;4.348;2023-08-08T11:28:52;102428.22;;;25.19;50.54
17362;BME280;8798;51.938;4.348;2023-08-08T11:31:20;102327.69;;;24.96;50.09
17362;BME280;8798;51.938;4.348;2023-08-08T11:33:49;102216.25;;;24.74;50.03
17362;BME280;8798;51.938;4.348;2023-08-08T11:36:24;102196.16;;;24.73;50.03
17362;BME280;8798;51.938;4.348;2023-08-08T11:38:55;102130.19;;;24.60;50.13
17362;BME280;8798;51.938;4.348;2023-08-08T11:41:24;102042.25;;;24.40;50.05
17362;BME280;8798;51.938;4.348;2023-08-08T11:43:59;102128.72;;;24.64;49.82
17362;BME280;8798;51.938;4.348;2023-08-08T11:46:28;102211.78;;;24.86;49.63
17362;BME280;8798;51.938;4.348;2023-08-08T11:49:02;102232.06;;;24.92;49.62
17362;BME280;8798;51.938;4.348;2023-08-08T11:51:36;102187.03;;;24.86;49.47
17362;BME280;8798;51.938;4.348;2023-08-08T11:54:06;102137.78;;;24.78;49.41
17362;BME280;8798;51.938;4.348;2023-08-08T11:56:35;102016.28;;;24.49;49.12
17362;BME280;8798;51.938;4.348;2023-08-08T11:59:10;101984.59;;;24.46;49.09
17362;BME280;8798;51.938;4.348;2023-08-08T12:01:41;101987.34;;;24.46;49.30
17362;BME280;8798;51.938;4.348;2023-08-08T12:04:24;102168.41;;;24.95;49.57
17362;BME280;8798;51.938;4.348;2023-08-08T12:07:05;102319.88;;;25.33;49.05
17362;BME280;8798;51.938;4.348;2023-08-08T12:09:41;102465.91;;;25.71;48.82
17362;BME280;8798;51.938;4.348;2023-08-08T12:12:09;102519.53;;;25.89;48.56
17362;BME280;8798;51.938;4.348;2023-08-08T12:14:37;102524.41;;;25.93;48.41
17362;BME280;8798;51.938;4.348;2023-08-08T12:17:22;102443.69;;;25.80;48.31
17362;BME280;8798;51.938;4.348;2023-08-08T12:19:50;102441.13;;;25.85;48.45
17362;BME280;8798;51.938;4.348;2023-08-08T12:22:24;102522.50;;;26.07;48.45
17362;BME280;8798;51.938;4.348;2023-08-08T12:24:54;102674.66;;;26.49;48.34
17362;BME280;8798;51.938;4.348;2023-08-08T12:27:22;102647.09;;;26.49;47.91
17362;BME280;8798;51.938;4.348;2023-08-08T12:29:56;102563.78;;;26.34;47.88
17362;BME280;8798;51.938;4.348;2023-08-08T12:32:25;102602.34;;;26.47;47.96
17362;BME280;8798;51.938;4.348;2023-08-08T12:34:55;102594.72;;;26.49;48.01
17362;BME280;8798;51.938;4.348;2023-08-08T12:37:30;102544.06;;;26.44;47.08
17362;BME280;8798;51.938;4.348;2023-08-08T12:39:59;102498.28;;;26.36;47.36
17362;BME280;8798;51.938;4.348;2023-08-08T12:42:30;102353.81;;;26.05;46.96
17362;BME280;8798;51.938;4.348;2023-08-08T12:45:06;102255.56;;;25.86;46.97
17362;BME280;8798;51.938;4.348;2023-08-08T12:47:34;102056.28;;;25.42;47.01
17362;BME280;8798;51.938;4.348;2023-08-08T12:50:03;101930.94;;;25.14;47.01
17362;BME280;8798;51.938;4.348;2023-08-08T12:52:39;101885.75;;;25.03;47.04
17362;BME280;8798;51.938;4.348;2023-08-08T12:55:08;101817.34;;;24.88;47.04
17362;BME280;8798;51.938;4.348;2023-08-08T12:57:38;101873.94;;;25.03;47.05
17362;BME280;8798;51.938;4.348;2023-08-08T13:00:14;101770.25;;;24.78;47.11
17362;BME280;8798;51.938;4.348;2023-08-08T13:02:49;101727.63;;;24.69;47.02
17362;BME280;8798;51.938;4.348;2023-08-08T13:05:30;101784.19;;;24.83;47.22
17362;BME280;8798;51.938;4.348;2023-08-08T13:07:58;101761.78;;;24.80;47.02
17362;BME280;8798;51.938;4.348;2023-08-08T13:10:28;101731.81;;;24.72;47.07
17362;BME280;8798;51.938;4.348;2023-08-08T13:13:03;101606.91;;;24.42;47.16
17362;BME280;8798;51.938;4.348;2023-08-08T13:15:32;101605.25;;;24.41;47.15
17362;BME280;8798;51.938;4.348;2023-08-08T13:18:00;101631.00;;;24.47;47.22
17362;BME280;8798;51.938;4.348;2023-08-08T13:20:34;101534.16;;;24.27;46.93
17362;BME280;8798;51.938;4.348;2023-08-08T13:23:02;101403.16;;;23.90;47.43
17362;BME280;8798;51.938;4.348;2023-08-08T13:25:32;101245.84;;;23.53;47.19
17362;BME280;8798;51.938;4.348;2023-08-08T13:28:07;101125.59;;;23.20;47.74
17362;BME280;8798;51.938;4.348;2023-08-08T13:30:36;101077.47;;;23.05;47.67
17362;BME280;8798;51.938;4.348;2023-08-08T13:33:04;101103.31;;;23.09;47.17
17362;BME280;8798;51.938;4.348;2023-08-08T13:35:39;101167.69;;;23.25;47.77
17362;BME280;8798;51.938;4.348;2023-08-08T13:38:07;101150.69;;;23.16;47.62
17362;BME280;8798;51.938;4.348;2023-08-08T13:40:49;101153.69;;;23.15;47.82
17362;BME280;8798;51.938;4.348;2023-08-08T13:43:16;101071.03;;;22.93;48.38
17362;BME280;8798;51.938;4.348;2023-08-08T13:45:45;101105.13;;;22.97;48.15
17362;BME280;8798;51.938;4.348;2023-08-08T13:48:19;101197.28;;;23.16;48.11
17362;BME280;8798;51.938;4.348;2023-08-08T13:50:48;101253.88;;;23.29;48.49
17362;BME280;8798;51.938;4.348;2023-08-08T13:53:16;101232.03;;;23.23;48.32
17362;BME280;8798;51.938;4.348;2023-08-08T13:55:51;101207.88;;;23.13;48.55
17362;BME280;8798;51.938;4.348;2023-08-08T13:58:19;101122.28;;;22.92;48.51
17362;BME280;8798;51.938;4.348;2023-08-08T14:00:48;101012.81;;;22.61;48.83
17362;BME280;8798;51.938;4.348;2023-08-08T14:03:30;100965.56;;;22.47;49.34
17362;BME280;8798;51.938;4.348;2023-08-08T14:06:11;100978.63;;;22.45;49.36
17362;BME280;8798;51.938;4.348;2023-08-08T14:08:47;100914.59;;;22.27;49.21
17362;BME280;8798;51.938;4.348;2023-08-08T14:11:16;100934.63;;;22.28;49.51
17362;BME280;8798;51.938;4.348;2023-08-08T14:13:44;100975.13;;;22.38;49.54
17362;BME280;8798;51.938;4.348;2023-08-08T14:16:18;101009.22;;;22.42;49.32
17362;BME280;8798;51.938;4.348;2023-08-08T14:18:46;101059.66;;;22.52;49.53
17362;BME280;8798;51.938;4.348;2023-08-08T14:21:14;101095.19;;;22.59;50.01
17362;BME280;8798;51.938;4.348;2023-08-08T14:23:49;101069.41;;;22.48;49.54
17362;BME280;8798;51.938;4.348;2023-08-08T14:26:18;101077.38;;;22.50;49.77
17362;BME280;8798;51.938;4.348;2023-08-08T14:28:46;101061.03;;;22.43;50.24
17362;BME280;8798;51.938;4.348;2023-08-08T14:31:21;101062.06;;;22.42;49.75
17362;BME280;8798;51.938;4.348;2023-08-08T14:33:49;101086.88;;;22.47;49.98
17362;BME280;8798;51.938;4.348;2023-08-08T14:36:17;101060.00;;;22.38;50.52
17362;BME280;8798;51.938;4.348;2023-08-08T14:38:51;101101.00;;;22.44;49.99
17362;BME280;8798;51.938;4.348;2023-08-08T14:41:21;101061.53;;;22.33;50.55
17362;BME280;8798;51.938;4.348;2023-08-08T14:43:49;101057.34;;;22.31;50.77
17362;BME280;8798;51.938;4.348;2023-08-08T14:46:30;101046.44;;;22.24;50.23
17362;BME280;8798;51.938;4.348;2023-08-08T14:49:03;100980.44;;;22.07;50.39
17362;BME280;8798;51.938;4.348;2023-08-08T14:51:39;100919.16;;;21.90;50.55
17362;BME280;8798;51.938;4.348;2023-08-08T14:54:07;100930.94;;;21.90;50.72
17362;BME280;8798;51.938;4.348;2023-08-08T14:56:37;100935.19;;;21.86;50.98
17362;BME280;8798;51.938;4.348;2023-08-08T14:59:11;100953.06;;;21.89;51.04
17362;BME280;8798;51.938;4.348;2023-08-08T15:01:39;100949.09;;;21.85;51.32
17362;BME280;8798;51.938;4.348;2023-08-08T15:04:07;100849.00;;;21.59;51.40
17362;BME280;8798;51.938;4.348;2023-08-08T15:06:49;100828.47;;;21.50;51.59
17362;BME280;8798;51.938;4.348;2023-08-08T15:09:18;100861.66;;;21.53;51.72
17362;BME280;8798;51.938;4.348;2023-08-08T15:11:54;100830.22;;;21.44;51.31
17362;BME280;8798;51.938;4.348;2023-08-08T15:14:22;100773.56;;;21.26;51.99
17362;BME280;8798;51.938;4.348;2023-08-08T15:16:51;100711.50;;;21.08;51.60
17362;BME280;8798;51.938;4.348;2023-08-08T15:19:26;100644.25;;;20.89;51.72
17362;BME280;8798;51.938;4.348;2023-08-08T15:21:54;100646.81;;;20.83;52.18
17362;BME280;8798;51.938;4.348;2023-08-08T15:24:22;100636.81;;;20.77;52.29
17362;BME280;8798;51.938;4.348;2023-08-08T15:26:58;100619.03;;;20.68;52.75
17362;BME280;8798;51.938;4.348;2023-08-08T15:29:27;100641.72;;;20.69;52.64
17362;BME280;8798;51.938;4.348;2023-08-08T15:31:55;100619.34;;;20.60;52.83
17362;BME280;8798;51.938;4.348;2023-08-08T15:34:30;100593.53;;;20.49;53.28
17362;BME280;8798;51.938;4.348;2023-08-08T15:36:58;100595.66;;;20.47;53.29
17362;BME280;8798;51.938;4.348;2023-08-08T15:39:28;100654.41;;;20.56;53.46
17362;BME280;8798;51.938;4.348;2023-08-08T15:42:05;100636.59;;;20.47;53.58
17362;BME280;8798;51.938;4.348;2023-08-08T15:44:33;100642.50;;;20.44;53.87
17362;BME280;8798;51.938;4.348;2023-08-08T15:47:01;100662.22;;;20.46;54.00
17362;BME280;8798;51.938;4.348;2023-08-08T15:49:35;100687.63;;;20.47;54.31
17362;BME280;8798;51.938;4.348;2023-08-08T15:52:04;100701.28;;;20.47;54.33
17362;BME280;8798;51.938;4.348;2023-08-08T15:54:32;100703.38;;;20.45;54.47
17362;BME280;8798;51.938;4.348;2023-08-08T15:57:08;100700.25;;;20.41;54.37
17362;BME280;8798;51.938;4.348;2023-08-08T15:59:36;100727.09;;;20.44;54.94
17362;BME280;8798;51.938;4.348;2023-08-08T16:02:15;100771.56;;;20.51;54.81
17362;BME280;8798;51.938;4.348;2023-08-08T16:04:51;100790.69;;;20.51;54.86
17362;BME280;8798;51.938;4.348;2023-08-08T16:07:33;100779.59;;;20.46;55.03
17362;BME280;8798;51.938;4.348;2023-08-08T16:10:01;100771.00;;;20.43;55.44
17362;BME280;8798;51.938;4.348;2023-08-08T16:12:31;100772.28;;;20.40;55.25
17362;BME280;8798;51.938;4.348;2023-08-08T16:15:07;100761.41;;;20.33;55.60
17362;BME280;8798;51.938;4.348;2023-08-08T16:17:35;100769.59;;;20.33;55.54
17362;BME280;8798;51.938;4.348;2023-08-08T16:20:04;100801.88;;;20.36;55.92
17362;BME280;8798;51.938;4.348;2023-08-08T16:22:40;100788.28;;;20.30;55.82
17362;BME280;8798;51.938;4.348;2023-08-08T16:25:08;100777.16;;;20.25;56.15
17362;BME280;8798;51.938;4.348;2023-08-08T16:27:37;100770.69;;;20.19;56.41